sensor_id;sensor_type;location;lat;lon;timestamp;pressure;altitude;pressure_sealevel;temperature;humidity
73629;BME280;61924;53.268;-2.458;2023-02-15T00:00:06;102121.53;;;15.71;29.03
73629;BME280;61924;53.268;-2.458;2023-02-15T00:02:30;102117.40;;;15.95;28.99
73629;BME280;61924;53.268;-2.458;2023-02-15T00:04:55;102118.21;;;16.28;28.90
73629;BME280;61924;53.268;-2.458;2023-02-15T00:07:21;102117.60;;;15.85;29.07
73629;BME280;61924;53.268;-2.458;2023-02-15T00:09:47;102113.17;;;16.32;29.00
73629;BME280;61924;53.268;-2.458;2023-02-15T00:12:12;102115.07;;;15.80;28.99
73629;BME280;61924;53.268;-2.458;2023-02-15T00:14:38;102113.55;;;15.65;29.05
73629;BME280;61924;53.268;-2.458;2023-02-15T00:17:04;102110.18;;;15.91;29.02
73629;BME280;61924;53.268;-2.458;2023-02-15T00:19:28;102111.99;;;15.95;29.04
73629;BME280;61924;53.268;-2.458;2023-02-15T00:21:54;102111.22;;;15.74;29.01
73629;BME280;61924;53.268;-2.458;2023-02-15T00:24:19;102110.57;;;15.74;29.06
73629;BME280;61924;53.268;-2.458;2023-02-15T00:26:46;102107.92;;;15.63;29.23
73629;BME280;61924;53.268;-2.458;2023-02-15T00:29:13;102105.60;;;15.50;29.15
73629;BME280;61924;53.268;-2.458;2023-02-15T00:31:36;102097.89;;;15.62;29.13
73629;BME280;61924;53.268;-2.458;2023-02-15T00:34:02;102091.74;;;15.54;29.11
73629;BME280;61924;53.268;-2.458;2023-02-15T00:36:27;102086.82;;;15.91;29.07
73629;BME280;61924;53.268;-2.458;2023-02-15T00:38:52;102086.16;;;15.68;29.04
73629;BME280;61924;53.268;-2.458;2023-02-15T00:41:18;102085.11;;;15.71;29.04
73629;BME280;61924;53.268;-2.458;2023-02-15T00:43:43;102077.47;;;15.41;29.12
73629;BME280;61924;53.268;-2.458;2023-02-15T00:46:09;102073.73;;;15.03;29.17
73629;BME280;61924;53.268;-2.458;2023-02-15T00:48:35;102071.43;;;15.43;29.14
73629;BME280;61924;53.268;-2.458;2023-02-15T00:51:00;102065.45;;;15.37;29.10
73629;BME280;61924;53.268;-2.458;2023-02-15T00:53:27;102057.17;;;15.39;29.14
73629;BME280;61924;53.268;-2.458;2023-02-15T00:55:52;102056.81;;;15.11;29.01
73629;BME280;61924;53.268;-2.458;2023-02-15T00:58:17;102046.31;;;15.32;29.06
73629;BME280;61924;53.268;-2.458;2023-02-15T01:00:44;102037.97;;;15.27;29.25
73629;BME280;61924;53.268;-2.458;2023-02-15T01:03:08;102025.16;;;15.27;29.21
73629;BME280;61924;53.268;-2.458;2023-02-15T01:05:33;102017.87;;;15.25;29.20
73629;BME280;61924;53.268;-2.458;2023-02-15T01:07:58;102012.25;;;15.17;29.23
73629;BME280;61924;53.268;-2.458;2023-02-15T01:10:24;102006.47;;;15.33;29.20
73629;BME280;61924;53.268;-2.458;2023-02-15T01:12:50;102001.27;;;14.81;29.26
73629;BME280;61924;53.268;-2.458;2023-02-15T01:15:14;101996.86;;;15.06;29.24
73629;BME280;61924;53.268;-2.458;2023-02-15T01:17:39;101994.66;;;14.88;29.28
73629;BME280;61924;53.268;-2.458;2023-02-15T01:20:06;101989.84;;;14.92;29.38
73629;BME280;61924;53.268;-2.458;2023-02-15T01:22:30;101986.14;;;14.64;29.54
73629;BME280;61924;53.268;-2.458;2023-02-15T01:24:56;101987.02;;;14.54;29.43
73629;BME280;61924;53.268;-2.458;2023-02-15T01:27:22;101990.75;;;14.72;29.37
73629;BME280;61924;53.268;-2.458;2023-02-15T01:29:47;101987.86;;;14.50;29.50
73629;BME280;61924;53.268;-2.458;2023-02-15T01:32:12;101987.05;;;14.61;29.50
73629;BME280;61924;53.268;-2.458;2023-02-15T01:34:37;101987.84;;;14.45;29.51
73629;BME280;61924;53.268;-2.458;2023-02-15T01:37:03;101987.18;;;14.20;29.55
73629;BME280;61924;53.268;-2.458;2023-02-15T01:39:29;101982.83;;;14.27;29.53
73629;BME280;61924;53.268;-2.458;2023-02-15T01:41:54;101976.47;;;14.37;29.58
73629;BME280;61924;53.268;-2.458;2023-02-15T01:44:47;101972.06;;;14.40;29.56
73629;BME280;61924;53.268;-2.458;2023-02-15T01:46:51;101967.52;;;14.30;29.71
73629;BME280;61924;53.268;-2.458;2023-02-15T01:49:13;101962.68;;;13.90;29.83
73629;BME280;61924;53.268;-2.458;2023-02-15T01:51:37;101957.32;;;14.30;29.70
73629;BME280;61924;53.268;-2.458;2023-02-15T01:54:05;101952.35;;;13.99;29.75
73629;BME280;61924;53.268;-2.458;2023-02-15T01:56:30;101949.10;;;14.12;29.65
73629;BME280;61924;53.268;-2.458;2023-02-15T01:58:53;101944.79;;;13.99;29.76
73629;BME280;61924;53.268;-2.458;2023-02-15T02:01:18;101945.06;;;13.83;29.78
73629;BME280;61924;53.268;-2.458;2023-02-15T02:03:53;101939.72;;;14.04;29.63
73629;BME280;61924;53.268;-2.458;2023-02-15T02:06:09;101932.85;;;13.86;29.84
73629;BME280;61924;53.268;-2.458;2023-02-15T02:08:34;101921.70;;;13.42;29.84
73629;BME280;61924;53.268;-2.458;2023-02-15T02:10:59;101924.57;;;13.84;29.73
73629;BME280;61924;53.268;-2.458;2023-02-15T02:13:24;101920.64;;;13.89;29.76
73629;BME280;61924;53.268;-2.458;2023-02-15T02:15:56;101913.80;;;13.77;29.72
73629;BME280;61924;53.268;-2.458;2023-02-15T02:18:25;101911.19;;;13.73;29.79
73629;BME280;61924;53.268;-2.458;2023-02-15T02:20:57;101909.27;;;13.87;29.73
73629;BME280;61924;53.268;-2.458;2023-02-15T02:23:24;101906.44;;;13.56;29.86
73629;BME280;61924;53.268;-2.458;2023-02-15T02:25:52;101903.41;;;13.29;29.93
73629;BME280;61924;53.268;-2.458;2023-02-15T02:28:01;101892.42;;;13.58;29.87
73629;BME280;61924;53.268;-2.458;2023-02-15T02:33:37;101896.90;;;14.08;30.44
73629;BME280;61924;53.268;-2.458;2023-02-15T02:35:16;101899.85;;;13.17;30.76
73629;BME280;61924;53.268;-2.458;2023-02-15T02:37:43;101893.71;;;13.14;30.57
73629;BME280;61924;53.268;-2.458;2023-02-15T02:40:06;101888.35;;;13.25;30.35
73629;BME280;61924;53.268;-2.458;2023-02-15T02:42:33;101884.56;;;13.42;30.31
73629;BME280;61924;53.268;-2.458;2023-02-15T02:44:56;101881.03;;;13.19;30.19
73629;BME280;61924;53.268;-2.458;2023-02-15T02:47:22;101868.41;;;13.29;30.11
73629;BME280;61924;53.268;-2.458;2023-02-15T02:49:44;101864.27;;;13.21;30.02
73629;BME280;61924;53.268;-2.458;2023-02-15T02:52:35;101859.56;;;13.25;29.93
73629;BME280;61924;53.268;-2.458;2023-02-15T02:54:35;101859.53;;;13.08;30.11
73629;BME280;61924;53.268;-2.458;2023-02-15T02:57:01;101849.06;;;13.05;30.12
73629;BME280;61924;53.268;-2.458;2023-02-15T02:59:30;101851.08;;;13.00;30.05
73629;BME280;61924;53.268;-2.458;2023-02-15T03:01:54;101850.63;;;13.09;30.13
73629;BME280;61924;53.268;-2.458;2023-02-15T03:04:18;101845.97;;;13.02;30.07
73629;BME280;61924;53.268;-2.458;2023-02-15T03:06:45;101838.04;;;13.47;29.97
73629;BME280;61924;53.268;-2.458;2023-02-15T03:09:11;101839.95;;;12.75;30.14
73629;BME280;61924;53.268;-2.458;2023-02-15T03:11:33;101833.75;;;12.69;30.15
73629;BME280;61924;53.268;-2.458;2023-02-15T03:13:58;101827.66;;;12.99;30.03
73629;BME280;61924;53.268;-2.458;2023-02-15T03:16:23;101826.19;;;13.00;29.78
73629;BME280;61924;53.268;-2.458;2023-02-15T03:18:53;101828.24;;;12.80;30.02
73629;BME280;61924;53.268;-2.458;2023-02-15T03:21:14;101827.91;;;12.51;30.11
73629;BME280;61924;53.268;-2.458;2023-02-15T03:23:39;101825.28;;;12.61;30.06
73629;BME280;61924;53.268;-2.458;2023-02-15T03:26:06;101817.88;;;12.63;29.91
73629;BME280;61924;53.268;-2.458;2023-02-15T03:28:35;101808.46;;;13.00;29.94
73629;BME280;61924;53.268;-2.458;2023-02-15T03:30:57;101806.77;;;12.47;29.99
73629;BME280;61924;53.268;-2.458;2023-02-15T03:33:23;101809.01;;;12.79;30.05
73629;BME280;61924;53.268;-2.458;2023-02-15T03:35:52;101803.69;;;12.35;30.04
73629;BME280;61924;53.268;-2.458;2023-02-15T03:38:17;101800.20;;;12.59;30.05
73629;BME280;61924;53.268;-2.458;2023-02-15T03:40:39;101792.19;;;12.58;29.98
73629;BME280;61924;53.268;-2.458;2023-02-15T03:43:09;101782.94;;;13.27;29.58
73629;BME280;61924;53.268;-2.458;2023-02-15T03:45:31;101783.96;;;12.66;29.88
73629;BME280;61924;53.268;-2.458;2023-02-15T03:47:56;101784.64;;;12.59;29.85
73629;BME280;61924;53.268;-2.458;2023-02-15T03:50:21;101782.12;;;12.97;29.82
73629;BME280;61924;53.268;-2.458;2023-02-15T03:52:45;101775.94;;;13.59;29.54
73629;BME280;61924;53.268;-2.458;2023-02-15T03:55:10;101772.76;;;13.71;29.29
73629;BME280;61924;53.268;-2.458;2023-02-15T03:57:35;101768.49;;;12.61;29.58
73629;BME280;61924;53.268;-2.458;2023-02-15T04:00:02;101765.14;;;12.73;29.78
73629;BME280;61924;53.268;-2.458;2023-02-15T04:02:31;101761.36;;;13.38;29.45
73629;BME280;61924;53.268;-2.458;2023-02-15T04:04:51;101759.77;;;13.04;29.70
73629;BME280;61924;53.268;-2.458;2023-02-15T04:07:16;101754.55;;;12.70;29.76
73629;BME280;61924;53.268;-2.458;2023-02-15T04:09:41;101747.94;;;12.51;29.84
73629;BME280;61924;53.268;-2.458;2023-02-15T04:12:07;101744.08;;;12.89;29.62
73629;BME280;61924;53.268;-2.458;2023-02-15T04:14:33;101739.00;;;12.93;29.71
73629;BME280;61924;53.268;-2.458;2023-02-15T04:16:58;101732.73;;;13.31;29.28
73629;BME280;61924;53.268;-2.458;2023-02-15T04:19:24;101726.57;;;13.04;29.33
73629;BME280;61924;53.268;-2.458;2023-02-15T04:21:50;101732.24;;;12.85;29.40
73629;BME280;61924;53.268;-2.458;2023-02-15T04:24:15;101738.26;;;12.71;29.64
73629;BME280;61924;53.268;-2.458;2023-02-15T04:26:41;101740.31;;;13.17;29.25
73629;BME280;61924;53.268;-2.458;2023-02-15T04:29:07;101742.67;;;12.81;29.43
73629;BME280;61924;53.268;-2.458;2023-02-15T04:31:32;101745.35;;;13.04;29.41
73629;BME280;61924;53.268;-2.458;2023-02-15T04:33:57;101746.91;;;13.08;29.41
73629;BME280;61924;53.268;-2.458;2023-02-15T04:36:23;101744.93;;;12.51;29.68
73629;BME280;61924;53.268;-2.458;2023-02-15T04:38:48;101739.05;;;13.52;29.26
73629;BME280;61924;53.268;-2.458;2023-02-15T04:41:13;101743.96;;;13.41;29.26
73629;BME280;61924;53.268;-2.458;2023-02-15T04:43:38;101737.62;;;12.96;29.26
73629;BME280;61924;53.268;-2.458;2023-02-15T04:46:03;101743.71;;;14.02;28.83
73629;BME280;61924;53.268;-2.458;2023-02-15T04:48:29;101738.77;;;13.63;29.08
73629;BME280;61924;53.268;-2.458;2023-02-15T04:50:54;101745.16;;;12.95;29.20
73629;BME280;61924;53.268;-2.458;2023-02-15T04:53:20;101746.30;;;13.39;29.13
73629;BME280;61924;53.268;-2.458;2023-02-15T04:55:46;101742.68;;;13.30;28.91
73629;BME280;61924;53.268;-2.458;2023-02-15T04:58:11;101739.17;;;13.76;28.81
73629;BME280;61924;53.268;-2.458;2023-02-15T05:00:36;101738.31;;;13.46;29.02
73629;BME280;61924;53.268;-2.458;2023-02-15T05:03:02;101739.30;;;13.26;29.02
73629;BME280;61924;53.268;-2.458;2023-02-15T05:05:27;101741.33;;;13.46;28.96
73629;BME280;61924;53.268;-2.458;2023-02-15T05:07:52;101732.75;;;13.47;29.04
73629;BME280;61924;53.268;-2.458;2023-02-15T05:10:18;101729.26;;;13.55;28.97
73629;BME280;61924;53.268;-2.458;2023-02-15T05:12:43;101718.51;;;13.34;28.88
73629;BME280;61924;53.268;-2.458;2023-02-15T05:15:09;101710.33;;;13.26;28.97
73629;BME280;61924;53.268;-2.458;2023-02-15T05:17:34;101712.67;;;13.86;28.66
73629;BME280;61924;53.268;-2.458;2023-02-15T05:20:00;101713.75;;;14.70;28.13
73629;BME280;61924;53.268;-2.458;2023-02-15T05:22:25;101711.00;;;15.05;28.09
73629;BME280;61924;53.268;-2.458;2023-02-15T05:24:50;101720.30;;;14.67;28.26
73629;BME280;61924;53.268;-2.458;2023-02-15T05:27:16;101724.32;;;14.85;28.08
73629;BME280;61924;53.268;-2.458;2023-02-15T05:29:42;101720.91;;;15.21;27.89
73629;BME280;61924;53.268;-2.458;2023-02-15T05:32:07;101717.02;;;15.09;27.89
73629;BME280;61924;53.268;-2.458;2023-02-15T05:34:32;101712.37;;;15.05;27.85
73629;BME280;61924;53.268;-2.458;2023-02-15T05:36:57;101701.90;;;15.26;27.86
73629;BME280;61924;53.268;-2.458;2023-02-15T05:39:22;101698.35;;;14.84;28.00
73629;BME280;61924;53.268;-2.458;2023-02-15T05:41:48;101686.05;;;14.94;27.86
73629;BME280;61924;53.268;-2.458;2023-02-15T05:44:13;101693.74;;;15.10;27.87
73629;BME280;61924;53.268;-2.458;2023-02-15T05:46:38;101696.94;;;15.24;27.95
73629;BME280;61924;53.268;-2.458;2023-02-15T05:49:03;101699.41;;;14.91;27.88
73629;BME280;61924;53.268;-2.458;2023-02-15T05:51:28;101702.31;;;14.67;28.04
73629;BME280;61924;53.268;-2.458;2023-02-15T05:53:54;101701.36;;;14.22;28.08
73629;BME280;61924;53.268;-2.458;2023-02-15T05:56:19;101692.73;;;15.06;27.72
73629;BME280;61924;53.268;-2.458;2023-02-15T05:58:44;101686.76;;;15.22;27.71
73629;BME280;61924;53.268;-2.458;2023-02-15T06:01:11;101687.56;;;14.68;27.82
73629;BME280;61924;53.268;-2.458;2023-02-15T06:03:35;101694.49;;;14.98;27.73
73629;BME280;61924;53.268;-2.458;2023-02-15T06:06:00;101703.25;;;14.74;27.82
73629;BME280;61924;53.268;-2.458;2023-02-15T06:08:26;101697.03;;;14.67;27.74
73629;BME280;61924;53.268;-2.458;2023-02-15T06:10:51;101694.36;;;14.85;27.71
73629;BME280;61924;53.268;-2.458;2023-02-15T06:13:16;101683.65;;;14.91;27.61
73629;BME280;61924;53.268;-2.458;2023-02-15T06:15:42;101682.51;;;14.88;27.64
73629;BME280;61924;53.268;-2.458;2023-02-15T06:18:07;101681.35;;;14.46;27.70
73629;BME280;61924;53.268;-2.458;2023-02-15T06:20:33;101677.34;;;14.59;27.65
73629;BME280;61924;53.268;-2.458;2023-02-15T06:22:58;101672.60;;;14.60;27.70
73629;BME280;61924;53.268;-2.458;2023-02-15T06:25:23;101664.47;;;14.61;27.58
73629;BME280;61924;53.268;-2.458;2023-02-15T06:27:49;101664.23;;;14.77;27.54
73629;BME280;61924;53.268;-2.458;2023-02-15T06:30:15;101664.85;;;14.51;27.48
73629;BME280;61924;53.268;-2.458;2023-02-15T06:32:41;101666.05;;;14.44;27.70
73629;BME280;61924;53.268;-2.458;2023-02-15T06:35:07;101666.59;;;15.02;27.36
73629;BME280;61924;53.268;-2.458;2023-02-15T06:37:32;101665.55;;;15.21;27.18
73629;BME280;61924;53.268;-2.458;2023-02-15T06:39:57;101658.01;;;15.08;27.27
73629;BME280;61924;53.268;-2.458;2023-02-15T06:42:23;101655.88;;;14.71;27.34
73629;BME280;61924;53.268;-2.458;2023-02-15T06:44:48;101657.10;;;15.20;27.27
73629;BME280;61924;53.268;-2.458;2023-02-15T06:47:13;101664.23;;;14.97;27.35
73629;BME280;61924;53.268;-2.458;2023-02-15T06:49:39;101667.60;;;15.07;27.31
73629;BME280;61924;53.268;-2.458;2023-02-15T06:52:04;101664.63;;;15.36;27.43
73629;BME280;61924;53.268;-2.458;2023-02-15T06:54:29;101660.52;;;15.31;27.80
73629;BME280;61924;53.268;-2.458;2023-02-15T06:56:55;101662.41;;;15.48;27.59
73629;BME280;61924;53.268;-2.458;2023-02-15T06:59:20;101650.72;;;15.33;27.59
73629;BME280;61924;53.268;-2.458;2023-02-15T07:01:46;101651.19;;;15.20;27.58
73629;BME280;61924;53.268;-2.458;2023-02-15T07:04:12;101653.85;;;15.19;27.51
73629;BME280;61924;53.268;-2.458;2023-02-15T07:06:37;101654.00;;;15.49;27.19
73629;BME280;61924;53.268;-2.458;2023-02-15T07:09:02;101646.62;;;15.19;27.02
73629;BME280;61924;53.268;-2.458;2023-02-15T07:11:28;101635.18;;;14.87;26.91
73629;BME280;61924;53.268;-2.458;2023-02-15T07:13:53;101630.49;;;15.15;26.89
73629;BME280;61924;53.268;-2.458;2023-02-15T07:16:19;101628.12;;;15.01;26.87
73629;BME280;61924;53.268;-2.458;2023-02-15T07:18:44;101626.34;;;15.26;26.79
73629;BME280;61924;53.268;-2.458;2023-02-15T07:21:09;101626.48;;;15.28;26.79
73629;BME280;61924;53.268;-2.458;2023-02-15T07:23:35;101616.99;;;15.27;26.59
73629;BME280;61924;53.268;-2.458;2023-02-15T07:26:00;101619.14;;;15.35;26.69
73629;BME280;61924;53.268;-2.458;2023-02-15T07:28:26;101619.01;;;15.45;26.66
73629;BME280;61924;53.268;-2.458;2023-02-15T07:30:51;101616.91;;;15.38;26.84
73629;BME280;61924;53.268;-2.458;2023-02-15T07:33:16;101608.27;;;15.11;26.88
73629;BME280;61924;53.268;-2.458;2023-02-15T07:35:47;101604.59;;;15.19;26.97
73629;BME280;61924;53.268;-2.458;2023-02-15T07:38:07;101604.17;;;15.25;26.94
73629;BME280;61924;53.268;-2.458;2023-02-15T07:40:33;101601.48;;;15.34;26.84
73629;BME280;61924;53.268;-2.458;2023-02-15T07:42:59;101593.69;;;14.88;27.00
73629;BME280;61924;53.268;-2.458;2023-02-15T07:45:24;101586.38;;;15.19;27.07
73629;BME280;61924;53.268;-2.458;2023-02-15T07:47:50;101590.37;;;15.44;27.03
73629;BME280;61924;53.268;-2.458;2023-02-15T07:50:15;101591.21;;;15.31;27.24
73629;BME280;61924;53.268;-2.458;2023-02-15T07:52:40;101593.13;;;15.00;27.77
73629;BME280;61924;53.268;-2.458;2023-02-15T07:55:06;101596.62;;;15.23;27.79
73629;BME280;61924;53.268;-2.458;2023-02-15T07:57:31;101610.52;;;15.47;27.50
73629;BME280;61924;53.268;-2.458;2023-02-15T07:59:56;101593.57;;;15.22;28.74
73629;BME280;61924;53.268;-2.458;2023-02-15T08:02:21;101592.13;;;15.37;29.19
73629;BME280;61924;53.268;-2.458;2023-02-15T08:04:47;101590.96;;;15.18;28.69
73629;BME280;61924;53.268;-2.458;2023-02-15T08:07:12;101591.66;;;14.99;28.37
73629;BME280;61924;53.268;-2.458;2023-02-15T08:09:37;101584.05;;;15.33;28.13
73629;BME280;61924;53.268;-2.458;2023-02-15T08:12:03;101585.93;;;15.01;28.15
73629;BME280;61924;53.268;-2.458;2023-02-15T08:14:28;101589.73;;;14.80;28.21
73629;BME280;61924;53.268;-2.458;2023-02-15T08:16:55;101600.30;;;15.09;28.09
73629;BME280;61924;53.268;-2.458;2023-02-15T08:19:20;101599.19;;;15.00;28.06
73629;BME280;61924;53.268;-2.458;2023-02-15T08:21:46;101609.25;;;15.32;27.86
73629;BME280;61924;53.268;-2.458;2023-02-15T08:24:12;101605.40;;;15.18;27.71
73629;BME280;61924;53.268;-2.458;2023-02-15T08:26:35;101618.82;;;15.48;27.62
73629;BME280;61924;53.268;-2.458;2023-02-15T08:29:01;101614.90;;;15.48;27.58
73629;BME280;61924;53.268;-2.458;2023-02-15T08:31:27;101615.37;;;15.62;27.59
73629;BME280;61924;53.268;-2.458;2023-02-15T08:33:53;101622.63;;;15.77;27.56
73629;BME280;61924;53.268;-2.458;2023-02-15T08:36:19;101626.45;;;15.54;27.70
73629;BME280;61924;53.268;-2.458;2023-02-15T08:38:43;101616.81;;;15.53;27.75
73629;BME280;61924;53.268;-2.458;2023-02-15T08:41:10;101612.99;;;15.34;27.83
73629;BME280;61924;53.268;-2.458;2023-02-15T08:43:34;101617.72;;;15.52;27.83
73629;BME280;61924;53.268;-2.458;2023-02-15T08:45:59;101610.30;;;15.68;27.73
73629;BME280;61924;53.268;-2.458;2023-02-15T08:48:24;101609.09;;;15.51;27.72
73629;BME280;61924;53.268;-2.458;2023-02-15T08:50:50;101607.42;;;15.77;27.70
73629;BME280;61924;53.268;-2.458;2023-02-15T08:53:16;101606.76;;;15.97;27.60
73629;BME280;61924;53.268;-2.458;2023-02-15T08:55:41;101605.13;;;15.97;27.57
73629;BME280;61924;53.268;-2.458;2023-02-15T08:58:06;101605.69;;;16.04;27.73
73629;BME280;61924;53.268;-2.458;2023-02-15T09:00:32;101605.20;;;15.64;27.77
73629;BME280;61924;53.268;-2.458;2023-02-15T09:02:57;101602.24;;;16.09;27.67
73629;BME280;61924;53.268;-2.458;2023-02-15T09:05:23;101598.25;;;15.95;27.61
73629;BME280;61924;53.268;-2.458;2023-02-15T09:07:48;101595.45;;;15.89;27.66
73629;BME280;61924;53.268;-2.458;2023-02-15T09:10:14;101593.13;;;16.25;27.46
73629;BME280;61924;53.268;-2.458;2023-02-15T09:12:39;101587.05;;;16.14;27.54
73629;BME280;61924;53.268;-2.458;2023-02-15T09:15:06;101586.15;;;15.94;27.47
73629;BME280;61924;53.268;-2.458;2023-02-15T09:17:31;101585.50;;;15.77;27.53
73629;BME280;61924;53.268;-2.458;2023-02-15T09:19:56;101584.20;;;15.98;27.62
73629;BME280;61924;53.268;-2.458;2023-02-15T09:22:22;101585.41;;;16.22;28.60
73629;BME280;61924;53.268;-2.458;2023-02-15T09:24:48;101582.70;;;15.82;28.45
73629;BME280;61924;53.268;-2.458;2023-02-15T09:27:12;101581.00;;;15.90;28.57
73629;BME280;61924;53.268;-2.458;2023-02-15T09:29:37;101582.60;;;15.77;28.92
73629;BME280;61924;53.268;-2.458;2023-02-15T09:32:03;101588.62;;;15.78;29.19
73629;BME280;61924;53.268;-2.458;2023-02-15T09:34:28;101592.92;;;15.57;29.40
73629;BME280;61924;53.268;-2.458;2023-02-15T09:36:53;101588.99;;;15.46;29.33
73629;BME280;61924;53.268;-2.458;2023-02-15T09:39:21;101583.10;;;15.53;29.23
73629;BME280;61924;53.268;-2.458;2023-02-15T09:42:31;101576.68;;;15.22;29.30
73629;BME280;61924;53.268;-2.458;2023-02-15T09:44:17;101580.80;;;15.27;29.63
73629;BME280;61924;53.268;-2.458;2023-02-15T09:46:47;101577.66;;;15.50;29.42
73629;BME280;61924;53.268;-2.458;2023-02-15T09:49:07;101573.23;;;15.46;29.46
73629;BME280;61924;53.268;-2.458;2023-02-15T09:51:43;101568.49;;;14.98;29.42
73629;BME280;61924;53.268;-2.458;2023-02-15T09:54:02;101568.84;;;15.34;29.36
73629;BME280;61924;53.268;-2.458;2023-02-15T09:56:26;101564.28;;;15.24;29.31
73629;BME280;61924;53.268;-2.458;2023-02-15T09:58:48;101568.70;;;15.60;29.20
73629;BME280;61924;53.268;-2.458;2023-02-15T10:01:13;101562.89;;;15.15;29.32
73629;BME280;61924;53.268;-2.458;2023-02-15T10:03:44;101561.42;;;15.74;29.21
73629;BME280;61924;53.268;-2.458;2023-02-15T10:06:11;101556.97;;;14.96;29.30
73629;BME280;61924;53.268;-2.458;2023-02-15T10:08:43;101552.67;;;15.56;29.24
73629;BME280;61924;53.268;-2.458;2023-02-15T10:10:57;101547.66;;;15.28;29.32
73629;BME280;61924;53.268;-2.458;2023-02-15T10:13:25;101545.59;;;15.64;29.28
73629;BME280;61924;53.268;-2.458;2023-02-15T10:15:52;101546.74;;;15.46;29.13
73629;BME280;61924;53.268;-2.458;2023-02-15T10:18:19;101553.39;;;15.33;29.22
73629;BME280;61924;53.268;-2.458;2023-02-15T10:20:36;101555.88;;;15.21;29.40
73629;BME280;61924;53.268;-2.458;2023-02-15T10:23:08;101557.83;;;15.38;29.23
73629;BME280;61924;53.268;-2.458;2023-02-15T10:25:31;101557.87;;;15.69;29.19
73629;BME280;61924;53.268;-2.458;2023-02-15T10:27:49;101555.97;;;15.28;29.26
73629;BME280;61924;53.268;-2.458;2023-02-15T10:30:14;101554.73;;;15.32;29.27
73629;BME280;61924;53.268;-2.458;2023-02-15T10:32:47;101557.94;;;15.20;29.22
73629;BME280;61924;53.268;-2.458;2023-02-15T10:35:13;101553.92;;;15.92;29.14
73629;BME280;61924;53.268;-2.458;2023-02-15T10:37:42;101549.11;;;15.31;29.33
73629;BME280;61924;53.268;-2.458;2023-02-15T10:40:01;101546.64;;;15.16;29.39
73629;BME280;61924;53.268;-2.458;2023-02-15T10:42:29;101541.89;;;15.18;29.30
73629;BME280;61924;53.268;-2.458;2023-02-15T10:45:00;101541.29;;;15.34;29.26
73629;BME280;61924;53.268;-2.458;2023-02-15T10:47:26;101535.66;;;15.39;29.35
73629;BME280;61924;53.268;-2.458;2023-02-15T10:49:50;101532.04;;;15.36;29.31
73629;BME280;61924;53.268;-2.458;2023-02-15T10:52:13;101533.26;;;15.09;29.34
73629;BME280;61924;53.268;-2.458;2023-02-15T10:54:34;101532.07;;;15.15;29.32
73629;BME280;61924;53.268;-2.458;2023-02-15T10:57:01;101530.31;;;15.33;29.23
73629;BME280;61924;53.268;-2.458;2023-02-15T10:59:29;101527.37;;;15.19;29.33
73629;BME280;61924;53.268;-2.458;2023-02-15T11:01:49;101526.38;;;15.10;29.27
73629;BME280;61924;53.268;-2.458;2023-02-15T11:04:31;101527.62;;;15.25;29.19
73629;BME280;61924;53.268;-2.458;2023-02-15T11:06:36;101528.61;;;14.84;29.37
73629;BME280;61924;53.268;-2.458;2023-02-15T11:09:02;101532.10;;;15.35;29.24
73629;BME280;61924;53.268;-2.458;2023-02-15T11:11:28;101542.70;;;15.19;29.06
73629;BME280;61924;53.268;-2.458;2023-02-15T11:13:54;101549.55;;;15.21;29.03
73629;BME280;61924;53.268;-2.458;2023-02-15T11:16:20;101551.04;;;15.46;28.99
73629;BME280;61924;53.268;-2.458;2023-02-15T11:18:46;101549.74;;;15.61;28.99
73629;BME280;61924;53.268;-2.458;2023-02-15T11:21:10;101553.56;;;15.22;28.98
73629;BME280;61924;53.268;-2.458;2023-02-15T11:23:36;101550.51;;;14.96;28.92
73629;BME280;61924;53.268;-2.458;2023-02-15T11:25:59;101546.54;;;15.03;29.00
73629;BME280;61924;53.268;-2.458;2023-02-15T11:28:27;101542.10;;;15.36;29.12
73629;BME280;61924;53.268;-2.458;2023-02-15T11:30:51;101543.02;;;15.15;29.17
73629;BME280;61924;53.268;-2.458;2023-02-15T11:33:17;101546.48;;;15.23;29.03
73629;BME280;61924;53.268;-2.458;2023-02-15T11:35:47;101547.53;;;15.14;29.16
73629;BME280;61924;53.268;-2.458;2023-02-15T11:38:12;101549.47;;;15.03;29.15
73629;BME280;61924;53.268;-2.458;2023-02-15T11:40:33;101546.38;;;14.88;29.18
73629;BME280;61924;53.268;-2.458;2023-02-15T11:42:58;101551.59;;;14.92;29.26
73629;BME280;61924;53.268;-2.458;2023-02-15T11:45:26;101554.70;;;15.07;29.10
73629;BME280;61924;53.268;-2.458;2023-02-15T11:47:46;101553.10;;;14.81;29.08
73629;BME280;61924;53.268;-2.458;2023-02-15T11:50:14;101553.66;;;14.48;29.13
73629;BME280;61924;53.268;-2.458;2023-02-15T11:52:38;101555.24;;;14.66;29.26
73629;BME280;61924;53.268;-2.458;2023-02-15T11:55:13;101551.82;;;14.91;29.04
73629;BME280;61924;53.268;-2.458;2023-02-15T11:57:33;101547.17;;;14.69;29.17
73629;BME280;61924;53.268;-2.458;2023-02-15T11:59:58;101548.31;;;14.51;29.28
73629;BME280;61924;53.268;-2.458;2023-02-15T12:02:21;101542.53;;;14.71;29.25
73629;BME280;61924;53.268;-2.458;2023-02-15T12:04:49;101541.15;;;14.76;29.09
73629;BME280;61924;53.268;-2.458;2023-02-15T12:07:17;101544.57;;;14.79;29.16
73629;BME280;61924;53.268;-2.458;2023-02-15T12:09:38;101542.98;;;14.37;29.31
73629;BME280;61924;53.268;-2.458;2023-02-15T12:12:34;101548.08;;;14.42;29.22
73629;BME280;61924;53.268;-2.458;2023-02-15T12:14:26;101552.97;;;14.20;29.36
73629;BME280;61924;53.268;-2.458;2023-02-15T12:16:54;101552.15;;;14.13;29.49
73629;BME280;61924;53.268;-2.458;2023-02-15T12:19:27;101555.49;;;14.23;29.34
73629;BME280;61924;53.268;-2.458;2023-02-15T12:21:42;101558.60;;;14.29;29.30
73629;BME280;61924;53.268;-2.458;2023-02-15T12:24:18;101561.45;;;14.54;29.21
73629;BME280;61924;53.268;-2.458;2023-02-15T12:26:34;101562.43;;;14.48;29.22
73629;BME280;61924;53.268;-2.458;2023-02-15T12:29:01;101561.57;;;14.24;29.23
73629;BME280;61924;53.268;-2.458;2023-02-15T12:31:28;101559.33;;;14.11;29.20